默认 日期 大小 文件数 浏览量 最新下载 xml
2020 01磁力链接相关资源由用户搜索指令自动获取,结果来源于网络,本站不存储任何资料,亦不承担任何责任,请于24小时内删除,搜索到9383个磁力,显示前4000条数据,用时29ms。
    {"Emmerdale 480.txt": 679, "The Piratebay.txt": 123, "Emmerdale S51E011 480p 13-01-2020 HDTV-ADT.mp4": 182042552}
创建时间: 2020-01-19 06:44:52 大小:173.61 MB 文件数量:3 热度:3 最近下载:2022-04-08 06:04:15
    ... .mp3": 8947173, "092. SF9-01-Good Guy.mp3": 7856925, "051 ... mp3": 9375251, "064. Shawn Mendes-01-Senorita.mp3": 7835585, "070. Lauv ... mp3": 8209434, "074. Jeremy Zucker-01-comethru.mp3": 7407030, "083. (여 ... mp3": 10236921, "097. 염따-01-Amanda (Feat. Simon Dominic) ( ...
创建时间: 2020-01-19 06:57:00 大小:882.21 MB 文件数量:101 热度:5 最近下载:2024-08-20 05:52:02
    ... .mp3": 6694569, "148. Lil Tjay - 2020.mp3": 9345479, "194. Nue - Easy ... , "040. Great Good Fine Ok - 2020.mp3": 6507572, "085. Prettyboyshav - Supernova ...
创建时间: 2020-01-19 06:57:40 大小:2.05 GB 文件数量:250 热度:4 最近下载:2022-04-08 06:43:06
    {"The Piratebay.txt": 123, "Coronation Street Omnibus 480p.txt": 642, "Coronation Street Omnibus 480p 13-01-2020 to 17-01-2020 HDTV-ADT.mp4": 1091105603}
创建时间: 2020-01-19 07:06:19 大小:1.02 GB 文件数量:3 热度:4 最近下载:2022-04-08 06:23:12
    ... . Lil Uzi Vert - Futsal Shuffle 2020.mp3": 8067074, "019. Billie Eilish ...
创建时间: 2020-01-19 07:06:48 大小:746.58 MB 文件数量:100 热度:4 最近下载:2022-04-08 06:51:33
    {"2020.01.06": {"뎁트 ... $OKAK (Single)] - 04 GROZA 2020 (Feat. Bass Santana & Tymee ... 20 Goodbye 2019 (Single)] - 01 Goodbye 2019 (Feat. Zoo & ... (Acoustic Ver.) (Single)] - 01 Lullaby (Acoustic Ver.) - 구글 ... JUNGLE - POLARIZE (Single)] - 01 INDAJUNGLE (Prod. by MeQue) ...
创建时间: 2020-01-19 07:07:41 大小:1.31 GB 文件数量:185 热度:5 最近下载:2025-03-23 17:02:03
    ... 行)] - 00 표지 (RIAK 2020.01.10) - 구글검색 ... 리] - 00 표지 (RIAK 2020.01.10) - 구글검색 ... Ocean) ['20 Take Control (Single)] - 01 Take Control (Original Mix) - 구 ... Blanche) ['20 Dimension (Remixes) (Single)] - 01 Dimension (Gai Barone Early Reflections ... 터테인먼트 2020.01.10) - 구글검색 ...
创建时间: 2020-01-19 07:22:45 大小:1.94 GB 文件数量:284 热度:3 最近下载:2022-04-08 06:37:13
    {"The Piratebay.txt": 123, "Coronation Street 480p.txt": 666, "Coronation Street S61E013-014 480p 17-01-2020 HDTV-ADT.mp4": 371337293}
创建时间: 2020-01-19 07:53:59 大小:354.14 MB 文件数量:3 热度:2 最近下载:2022-04-08 06:42:41
    ... .mkv": 217644906, "Code M S01E02 2020 Hindi 720p WEBRip x264 AAC ... .mkv": 190008556, "Code M S01E03 2020 Hindi 720p WEBRip x264 AAC ... .mkv": 201401241, "Code M S01E04 2020 Hindi 720p WEBRip x264 AAC ... .mkv": 190075699, "Code M S01E05 2020 Hindi 720p WEBRip x264 AAC ...
创建时间: 2020-01-19 08:05:39 大小:1.53 GB 文件数量:8 热度:9 最近下载:2025-08-04 08:08:04
    ... , "03-deathpool-song_writers.mp3": 10422465, "01-deathpool-linkse_meiden.mp3": 10417242, "00 ... ": {"02-isend-asylum.mp3": 11607402, "01-carnage_and_cluster-noisj_06.mp3": 7551107, "00 ...
创建时间: 2020-01-19 08:19:59 大小:86.65 MB 文件数量:17 热度:4 最近下载:2022-04-08 06:28:21
    {"crack": {"run_40633.exe": 58390}, "www.FENOPY.se.jpg": 123556, "Torrent downloaded from extremlymtorrents.me.txt": 96, "Universal Adobe Patcher 2.01 by PainteR 2020.exe": 8113290, "Universal Adobe Patcher 2.01 by PainteR 2020.nfo": 752}
创建时间: 2020-01-19 08:21:47 大小:7.91 MB 文件数量:5 热度:5 最近下载:2024-08-16 05:45:02
    {"011. Rin - Alien.mp3": 8433201, "017. Samra - COLT.mp3": 7228671, "038. Nimo - KARMA.mp3": 10244685, "073. Bausa - Mary.mp3": 6389192, "090. Azet - Seele.mp3": 5464308, "095. Rin - Vintage.mp3": 6734007, "040. Jerome - Light.mp3": 7478951, "064. Samra - ...
创建时间: 2020-01-19 08:31:06 大小:715.42 MB 文件数量:100 热度:4 最近下载:2024-09-19 20:45:03
    {"01.mp3": 6094642, "02.mp3": 5880135, " ...
创建时间: 2020-01-19 08:49:52 大小:236.85 MB 文件数量:44 热度:4 最近下载:2022-04-08 06:21:06
    ... "harunemuri - Fanfare": {"Cover.jpg": 367631, "01 - Fanfare.mp3": 9307662}, "Apocalyptica - Cell ... - Diamonds": {"Cover.jpg": 741324, "01 - Diamonds.mp3": 8721494}, "Sia - ... , "04 - Disorder.mp3": 21255945, "01 - Nightfall.mp3": 18875669, "02 - Wasteland ...
创建时间: 2020-01-19 09:02:25 大小:4.01 GB 文件数量:457 热度:5 最近下载:2022-04-08 06:03:15
    {"CD1": {"coverart.png": 65966}, "CD2": {"coverart.png": 65966}, "CD3": {"coverart.png": 65966}, "Images": {"mugshot.png": 14153, "poster1.png": 540372, "poster2.png": 274567, "poster3.png": 164962, "template.png": 1542058, "flag_garage.png": 5136, " ...
创建时间: 2020-01-19 09:09:32 大小:776.39 MB 文件数量:82 热度:3 最近下载:2022-04-08 06:25:17
    {"Readme!!.url": 1360, "Windows 10 Pro 19H2 X64 incl Office 2020 en-US 01 2020.exe": 14691596, "Windows 10 Pro 19H2 X64 incl Office 2020 en-US 01 2020.nfo": 576}
创建时间: 2020-01-19 11:20:20 大小:14.01 MB 文件数量:3 热度:6 最近下载:2025-02-18 03:45:01
    {"tuttop.com.url": 109, "My_Summer_Car_v14.01.2020_setup.exe": 306626946}
创建时间: 2020-01-19 12:10:25 大小:292.42 MB 文件数量:2 热度:4 最近下载:2022-04-08 06:37:12
    ... mp3": 11152195, "065. Shawn Mendes-01-Senorita - 구글검색 ... mp3": 8554272, "093. Arizona Zervas-01-ROXANNE - 구글검색 ... 아.mp3": 8958628, "202001월 13일 TOP 100 ... mp3": 7953676, "031. pH-1-01-Nerdy Love (Feat. 백예 ... mp3": 10236921, "089. 염따-01-Amanda (Feat. Simon Dominic) (Prod ...
创建时间: 2020-01-19 12:17:22 大小:1.71 GB 文件数量:101 热度:3 最近下载:2022-04-08 06:41:43
    {"GT Porsche 01.2020.pdf": 190307213, "Free Paid Books Online - Must See.txt": 253}
创建时间: 2020-01-19 12:38:35 大小:181.49 MB 文件数量:2 热度:4 最近下载:2022-04-08 05:45:54
    {"pba_tasty_stacey_480p_1500.mp4": 352839839, "Torrent Downloaded From ArenaBG.ch.txt": 18}
创建时间: 2020-01-19 13:08:18 大小:336.49 MB 文件数量:2 热度:34 最近下载:2024-10-14 16:48:02